createdAt,value
2022-07-25T00:01:44.621Z,5.20
2022-07-25T00:04:12.591Z,4.90
2022-07-25T00:06:41.103Z,4.93
2022-07-25T00:09:07.945Z,4.75
2022-07-25T00:11:34.508Z,4.57
2022-07-25T00:14:01.014Z,4.75
2022-07-25T00:16:27.531Z,4.90
2022-07-25T00:18:55.845Z,4.88
2022-07-25T00:21:22.512Z,4.55
2022-07-25T00:23:48.981Z,5.30
2022-07-25T00:26:16.925Z,4.85
2022-07-25T00:28:43.490Z,4.65
2022-07-25T00:31:10.070Z,4.53
2022-07-25T00:33:36.606Z,4.50
2022-07-25T00:36:04.839Z,5.45
2022-07-25T00:38:31.343Z,4.85
2022-07-25T00:40:57.844Z,4.80
2022-07-25T00:43:24.361Z,5.07
2022-07-25T00:45:50.833Z,4.75
2022-07-25T00:48:17.349Z,4.72
2022-07-25T00:50:44.259Z,5.13
2022-07-25T00:53:12.167Z,4.68
2022-07-25T00:55:38.769Z,4.68
2022-07-25T00:58:05.382Z,4.90
2022-07-25T01:00:32.313Z,4.65
2022-07-25T01:02:59.016Z,4.78
2022-07-25T01:05:25.639Z,5.00
2022-07-25T01:07:52.224Z,4.90
2022-07-25T01:10:20.117Z,4.78
2022-07-25T01:12:51.196Z,5.40
2022-07-25T01:15:17.819Z,5.63
2022-07-25T01:17:44.483Z,5.05
2022-07-25T01:20:16.044Z,5.38
2022-07-25T01:22:42.771Z,5.05
2022-07-25T01:25:09.497Z,4.93
2022-07-25T01:27:36.034Z,5.50
2022-07-25T01:30:02.743Z,5.22
2022-07-25T01:32:29.359Z,5.18
2022-07-25T01:34:55.837Z,5.28
2022-07-25T01:37:23.760Z,5.53
2022-07-25T01:39:50.245Z,5.68
2022-07-25T01:42:16.713Z,5.32
2022-07-25T01:44:43.224Z,5.53
2022-07-25T01:47:09.727Z,5.45
2022-07-25T01:49:36.223Z,5.47
2022-07-25T01:52:02.760Z,5.18
2022-07-25T01:54:30.638Z,5.78
2022-07-25T01:56:58.520Z,5.30
2022-07-25T01:59:25.576Z,5.65
2022-07-25T02:01:52.290Z,5.55
2022-07-25T02:04:18.883Z,5.20
2022-07-25T02:06:45.563Z,5.82
2022-07-25T02:09:12.039Z,5.22
2022-07-25T02:11:39.895Z,5.95
2022-07-25T02:14:06.834Z,4.97
2022-07-25T02:16:33.732Z,5.88
2022-07-25T02:19:00.271Z,5.72
2022-07-25T02:21:26.742Z,5.18
2022-07-25T02:23:53.324Z,5.75
2022-07-25T02:26:19.856Z,5.40
2022-07-25T02:28:49.392Z,5.50
2022-07-25T02:31:16.208Z,5.50
2022-07-25T02:33:42.839Z,6.20
2022-07-25T02:36:10.556Z,6.13
2022-07-25T02:38:37.025Z,7.80
2022-07-25T02:41:04.588Z,7.63
2022-07-25T02:43:31.229Z,7.95
2022-07-25T02:45:59.153Z,7.65
2022-07-25T02:48:25.758Z,8.70
2022-07-25T02:50:52.242Z,7.90
2022-07-25T02:53:34.192Z,8.57
2022-07-25T02:56:05.749Z,8.05
2022-07-25T02:58:32.559Z,8.10
2022-07-25T03:01:00.542Z,8.00
2022-07-25T03:03:27.161Z,7.85
2022-07-25T03:05:53.730Z,7.53
2022-07-25T03:08:20.292Z,7.45
2022-07-25T03:10:46.809Z,7.47
2022-07-25T03:13:13.294Z,7.40
2022-07-25T03:15:39.779Z,7.80
2022-07-25T03:18:07.805Z,8.15
2022-07-25T03:20:34.311Z,8.07
2022-07-25T03:23:00.770Z,7.63
2022-07-25T03:25:27.303Z,8.25
2022-07-25T03:27:53.833Z,8.77
2022-07-25T03:30:20.595Z,8.52
2022-07-25T03:32:47.875Z,8.18
2022-07-25T03:35:16.207Z,8.40
2022-07-25T03:37:42.741Z,7.65
2022-07-25T03:40:09.627Z,8.15
2022-07-25T03:42:36.248Z,8.10
2022-07-25T03:45:02.853Z,7.35
2022-07-25T03:47:29.350Z,7.03
2022-07-25T03:49:55.859Z,7.50
2022-07-25T03:52:23.761Z,7.40
2022-07-25T03:54:50.282Z,6.85
2022-07-25T03:57:16.917Z,7.20
2022-07-25T03:59:43.402Z,7.10
2022-07-25T04:02:10.184Z,6.97
2022-07-25T04:04:36.863Z,7.82
2022-07-25T04:07:03.494Z,8.70
2022-07-25T04:09:33.591Z,7.80
2022-07-25T04:12:00.368Z,7.70
2022-07-25T04:14:26.899Z,7.95
2022-07-25T04:16:53.474Z,9.50
2022-07-25T04:19:20.051Z,8.93
2022-07-25T04:21:46.618Z,9.50
2022-07-25T04:24:13.243Z,8.68
2022-07-25T04:26:41.085Z,8.85
2022-07-25T04:29:07.730Z,8.55
2022-07-25T04:31:34.269Z,8.40
2022-07-25T04:34:00.941Z,7.97
2022-07-25T04:36:27.525Z,8.43
2022-07-25T04:38:54.133Z,7.07
2022-07-25T04:41:20.709Z,7.15
2022-07-25T04:43:49.114Z,6.05
2022-07-25T04:46:18.058Z,6.43
2022-07-25T04:48:46.360Z,5.72
2022-07-25T04:51:13.786Z,5.15
2022-07-25T04:53:40.340Z,4.63
2022-07-25T04:56:07.016Z,4.45
2022-07-25T04:58:33.618Z,4.18
2022-07-25T05:01:01.578Z,3.85
2022-07-25T05:03:28.131Z,3.45
2022-07-25T05:05:54.643Z,3.28
2022-07-25T05:08:21.105Z,3.47
2022-07-25T05:10:47.583Z,3.15
2022-07-25T05:13:14.041Z,2.97
2022-07-25T05:15:42.763Z,3.03
2022-07-25T05:18:11.413Z,2.67
2022-07-25T05:20:38.167Z,2.72
2022-07-25T05:23:04.747Z,2.55
2022-07-25T05:25:31.414Z,2.65
2022-07-25T05:27:58.687Z,2.15
2022-07-25T05:30:25.745Z,2.05
2022-07-25T05:32:52.334Z,2.53
2022-07-25T05:35:20.244Z,2.30
2022-07-25T05:37:46.820Z,2.08
2022-07-25T05:40:13.379Z,2.22
2022-07-25T05:42:39.907Z,1.65
2022-07-25T05:45:07.004Z,1.98
2022-07-25T05:47:33.565Z,1.98
2022-07-25T05:50:00.809Z,1.80
2022-07-25T05:52:28.729Z,1.63
2022-07-25T05:54:55.604Z,1.63
2022-07-25T05:57:23.027Z,1.67
2022-07-25T05:59:49.631Z,1.52
2022-07-25T06:02:16.675Z,1.50
2022-07-25T06:04:43.219Z,1.50
2022-07-25T06:07:09.799Z,1.23
2022-07-25T06:09:39.916Z,1.50
2022-07-25T06:12:06.584Z,1.33
2022-07-25T06:14:35.013Z,1.40
2022-07-25T06:17:02.132Z,1.30
2022-07-25T06:19:29.552Z,1.33
2022-07-25T06:21:56.056Z,1.42
2022-07-25T06:24:22.653Z,1.40
2022-07-25T06:26:50.535Z,1.35
2022-07-25T06:29:17.067Z,1.33
2022-07-25T06:31:46.453Z,1.90
2022-07-25T06:34:14.142Z,1.08
2022-07-25T06:36:40.675Z,1.27
2022-07-25T06:39:07.507Z,1.33
2022-07-25T06:41:34.055Z,1.27
2022-07-25T06:44:02.110Z,1.60
2022-07-25T06:46:31.458Z,1.20
2022-07-25T06:48:58.168Z,1.55
2022-07-25T06:51:25.242Z,1.00
2022-07-25T06:53:52.019Z,1.30
2022-07-25T06:56:21.767Z,1.38
2022-07-25T06:58:48.396Z,1.20
2022-07-25T07:01:16.510Z,1.80
2022-07-25T07:03:43.283Z,1.25
2022-07-25T07:06:09.873Z,1.35
2022-07-25T07:08:36.761Z,1.38
2022-07-25T07:11:03.801Z,1.30
2022-07-25T07:13:30.379Z,1.23
2022-07-25T07:15:57.146Z,1.25
2022-07-25T07:18:25.104Z,1.63
2022-07-25T07:20:52.221Z,1.30
2022-07-25T07:23:18.913Z,1.80
2022-07-25T07:25:47.103Z,1.48
2022-07-25T07:28:13.952Z,1.10
2022-07-25T07:31:06.192Z,1.40
2022-07-25T07:33:28.491Z,1.27
2022-07-25T07:35:56.960Z,1.65
2022-07-25T07:38:23.561Z,1.20
2022-07-25T07:40:50.118Z,1.17
2022-07-25T07:43:16.723Z,1.40
2022-07-25T07:45:43.574Z,1.23
2022-07-25T07:48:10.326Z,1.30
2022-07-25T07:50:38.398Z,1.50
2022-07-25T07:53:05.339Z,1.33
2022-07-25T07:55:48.921Z,1.77
2022-07-25T07:58:16.311Z,1.00
2022-07-25T08:00:43.316Z,1.33
2022-07-25T08:03:10.709Z,1.30
2022-07-25T08:05:39.990Z,1.50
2022-07-25T08:08:07.590Z,1.48
2022-07-25T08:10:36.571Z,1.42
2022-07-25T08:13:04.022Z,1.58
2022-07-25T08:15:30.715Z,1.60
2022-07-25T08:17:57.287Z,1.10
2022-07-25T08:20:39.344Z,1.25
2022-07-25T08:23:08.280Z,1.63
2022-07-25T08:25:35.287Z,1.55
2022-07-25T08:28:01.866Z,1.00
2022-07-25T08:30:28.485Z,1.58
2022-07-25T08:33:05.512Z,1.45
2022-07-25T08:35:32.739Z,1.15
2022-07-25T08:37:59.818Z,1.30
2022-07-25T08:40:28.866Z,1.33
2022-07-25T08:42:55.832Z,1.27
2022-07-25T08:45:22.766Z,1.20
2022-07-25T08:47:50.978Z,1.15
2022-07-25T08:50:18.612Z,1.40
2022-07-25T08:52:45.836Z,1.42
2022-07-25T08:55:16.871Z,1.13
2022-07-25T08:57:46.070Z,1.20
2022-07-25T09:00:13.730Z,1.20
2022-07-25T09:02:40.953Z,1.50
2022-07-25T09:05:08.709Z,1.05
2022-07-25T09:07:36.216Z,1.50
2022-07-25T09:10:13.013Z,1.60
2022-07-25T09:12:41.896Z,1.23
2022-07-25T09:15:10.249Z,1.33
2022-07-25T09:17:38.440Z,1.33
2022-07-25T09:20:08.915Z,1.40
2022-07-25T09:22:43.534Z,1.40
2022-07-25T09:25:19.379Z,1.30
2022-07-25T09:27:45.953Z,1.38
2022-07-25T09:30:15.041Z,1.40
2022-07-25T09:32:41.809Z,1.25
2022-07-25T09:35:08.763Z,1.50
2022-07-25T09:37:35.269Z,1.70
2022-07-25T09:40:01.869Z,1.40
2022-07-25T09:42:29.415Z,1.45
2022-07-25T09:45:03.851Z,1.60
2022-07-25T09:47:32.278Z,1.45
2022-07-25T09:49:58.915Z,1.48
2022-07-25T09:52:25.487Z,1.60
2022-07-25T09:54:52.522Z,1.48
2022-07-25T09:57:19.152Z,1.17
2022-07-25T09:59:45.767Z,1.45
2022-07-25T10:02:16.486Z,1.63
2022-07-25T10:04:51.480Z,1.20
2022-07-25T10:07:20.671Z,1.35
2022-07-25T10:09:48.525Z,1.27
2022-07-25T10:12:18.451Z,1.50
2022-07-25T10:15:04.972Z,1.30
2022-07-25T10:17:31.855Z,1.60
2022-07-25T10:20:01.324Z,1.58
2022-07-25T10:22:55.324Z,1.70
2022-07-25T10:25:22.588Z,1.55
2022-07-25T10:27:50.843Z,1.50
2022-07-25T10:30:23.068Z,1.27
2022-07-25T10:32:50.508Z,1.50
2022-07-25T10:35:19.245Z,1.83
2022-07-25T10:37:49.097Z,1.90
2022-07-25T10:40:25.642Z,1.63
2022-07-25T10:42:56.260Z,1.70
2022-07-25T10:45:26.054Z,1.73
2022-07-25T10:47:54.163Z,2.17
2022-07-25T10:50:46.196Z,1.95
2022-07-25T10:53:11.170Z,1.85
2022-07-25T10:55:38.015Z,1.80
2022-07-25T10:58:22.126Z,2.08
2022-07-25T11:00:51.384Z,1.70
2022-07-25T11:03:18.791Z,2.00
2022-07-25T11:05:47.161Z,2.10
2022-07-25T11:08:22.613Z,2.03
2022-07-25T11:10:50.602Z,2.22
2022-07-25T11:13:17.301Z,2.80
2022-07-25T11:15:44.002Z,2.22
2022-07-25T11:18:10.508Z,2.47
2022-07-25T11:20:37.463Z,2.63
2022-07-25T11:23:05.397Z,2.53
2022-07-25T11:25:32.046Z,2.00
2022-07-25T11:27:59.177Z,2.08
2022-07-25T11:30:27.610Z,1.92
2022-07-25T11:32:56.119Z,1.70
2022-07-25T11:35:25.294Z,1.98
2022-07-25T11:37:52.387Z,1.60
2022-07-25T11:40:22.693Z,2.00
2022-07-25T11:42:50.208Z,1.67
2022-07-25T11:45:18.167Z,1.40
2022-07-25T11:47:45.073Z,1.38
2022-07-25T11:50:15.079Z,1.58
2022-07-25T11:52:43.002Z,1.25
2022-07-25T11:55:10.352Z,1.20
2022-07-25T11:57:39.121Z,1.10
2022-07-25T12:00:08.704Z,1.20
2022-07-25T12:02:36.910Z,1.33
2022-07-25T12:05:05.081Z,1.42
2022-07-25T12:07:35.756Z,1.50
2022-07-25T12:10:02.366Z,1.33
2022-07-25T12:12:29.057Z,1.27
2022-07-25T12:14:56.985Z,1.75
2022-07-25T12:17:23.473Z,1.40
2022-07-25T12:19:50.000Z,1.27
2022-07-25T12:22:16.885Z,1.10
2022-07-25T12:24:43.550Z,1.20
2022-07-25T12:27:10.313Z,1.88
2022-07-25T12:29:37.212Z,1.55
2022-07-25T12:32:05.597Z,1.27
2022-07-25T12:34:32.065Z,1.60
2022-07-25T12:36:58.641Z,2.13
2022-07-25T12:39:25.214Z,1.33
2022-07-25T12:41:51.764Z,1.27
2022-07-25T12:44:18.213Z,1.30
2022-07-25T12:46:49.442Z,1.45
2022-07-25T12:49:17.667Z,1.05
2022-07-25T12:51:44.245Z,1.40
2022-07-25T12:54:10.977Z,2.13
2022-07-25T12:56:38.615Z,1.75
2022-07-25T12:59:05.481Z,1.20
2022-07-25T13:01:32.198Z,1.20
2022-07-25T13:03:58.943Z,1.20
2022-07-25T13:06:26.876Z,1.20
2022-07-25T13:08:53.484Z,0.88
2022-07-25T13:11:20.073Z,1.05
2022-07-25T13:13:46.835Z,1.60
2022-07-25T13:16:13.472Z,1.70
2022-07-25T13:18:39.991Z,1.00
2022-07-25T13:21:06.967Z,1.20
2022-07-25T13:23:34.899Z,1.00
2022-07-25T13:26:01.667Z,1.02
2022-07-25T13:28:28.284Z,0.82
2022-07-25T13:30:55.656Z,1.38
2022-07-25T13:33:22.250Z,1.45
2022-07-25T13:35:48.889Z,0.98
2022-07-25T13:38:15.402Z,0.90
2022-07-25T13:40:43.362Z,1.25
2022-07-25T13:43:09.992Z,1.17
2022-07-25T13:45:36.605Z,1.00
2022-07-25T13:48:28.587Z,0.90
2022-07-25T13:50:50.764Z,0.95
2022-07-25T13:53:17.454Z,1.10
2022-07-25T13:55:45.596Z,1.15
2022-07-25T13:58:12.406Z,0.70
2022-07-25T14:00:39.670Z,1.00
2022-07-25T14:03:06.301Z,0.82
2022-07-25T14:05:32.946Z,0.70
2022-07-25T14:07:59.962Z,0.80
2022-07-25T14:10:26.820Z,0.60
2022-07-25T14:12:54.713Z,0.88
2022-07-25T14:15:21.318Z,0.60
2022-07-25T14:17:48.294Z,0.57
2022-07-25T14:20:14.861Z,0.88
2022-07-25T14:22:42.229Z,0.80
2022-07-25T14:25:09.363Z,0.80
2022-07-25T14:27:36.263Z,0.70
2022-07-25T14:30:04.720Z,0.47
2022-07-25T14:32:31.267Z,0.55
2022-07-25T14:34:57.899Z,0.60
2022-07-25T14:37:25.246Z,0.70
2022-07-25T14:39:51.846Z,0.60
2022-07-25T14:42:18.362Z,0.47
2022-07-25T14:44:44.950Z,0.50
2022-07-25T14:47:13.106Z,0.50
2022-07-25T14:49:40.252Z,0.60
2022-07-25T14:52:06.851Z,0.43
2022-07-25T14:54:33.540Z,0.75
2022-07-25T14:57:00.166Z,0.40
2022-07-25T14:59:26.711Z,0.63
2022-07-25T15:01:53.315Z,0.55
2022-07-25T15:04:23.471Z,0.43
2022-07-25T15:06:50.277Z,0.50
2022-07-25T15:09:17.124Z,0.50
2022-07-25T15:11:43.651Z,0.40
2022-07-25T15:14:10.180Z,0.57
2022-07-25T15:16:37.905Z,0.65
2022-07-25T15:19:15.950Z,0.60
2022-07-25T15:21:44.993Z,0.60
2022-07-25T15:24:11.832Z,0.65
2022-07-25T15:26:38.585Z,0.70
2022-07-25T15:29:06.504Z,0.50
2022-07-25T15:31:33.284Z,0.50
2022-07-25T15:33:59.967Z,0.52
2022-07-25T15:36:29.612Z,0.68
2022-07-25T15:38:57.718Z,0.63
2022-07-25T15:41:24.426Z,0.30
2022-07-25T15:43:51.085Z,0.45
2022-07-25T15:46:17.670Z,0.30
2022-07-25T15:48:44.853Z,0.40
2022-07-25T15:51:11.486Z,0.55
2022-07-25T15:53:37.964Z,0.40
2022-07-25T15:56:06.274Z,0.40
2022-07-25T15:58:32.921Z,0.63
2022-07-25T16:00:59.703Z,0.60
2022-07-25T16:03:26.498Z,0.40
2022-07-25T16:05:55.517Z,0.65
2022-07-25T16:08:22.153Z,0.65
2022-07-25T16:10:48.710Z,0.35
2022-07-25T16:13:16.678Z,0.40
2022-07-25T16:15:43.236Z,0.40
2022-07-25T16:18:09.867Z,0.20
2022-07-25T16:20:36.789Z,0.40
2022-07-25T16:23:03.491Z,0.40
2022-07-25T16:25:30.239Z,0.50
2022-07-25T16:27:56.956Z,0.70
2022-07-25T16:30:25.111Z,0.50
2022-07-25T16:32:51.725Z,0.70
2022-07-25T16:35:18.627Z,1.27
2022-07-25T16:37:45.166Z,0.60
2022-07-25T16:40:12.425Z,1.05
2022-07-25T16:42:39.117Z,0.85
2022-07-25T16:45:06.046Z,1.08
2022-07-25T16:47:34.021Z,0.80
2022-07-25T16:50:00.766Z,0.65
2022-07-25T16:52:27.247Z,0.82
2022-07-25T16:54:53.789Z,1.50
2022-07-25T16:57:23.726Z,1.17
2022-07-25T16:59:53.241Z,0.80
2022-07-25T17:02:20.210Z,1.05
2022-07-25T17:04:48.576Z,1.00
2022-07-25T17:07:15.246Z,1.10
2022-07-25T17:09:41.935Z,0.98
2022-07-25T17:12:08.620Z,1.20
2022-07-25T17:14:35.219Z,1.17
2022-07-25T17:17:01.985Z,1.23
2022-07-25T17:19:28.641Z,1.45
2022-07-25T17:21:56.540Z,0.90
2022-07-25T17:24:23.050Z,0.88
2022-07-25T17:26:49.592Z,0.90
2022-07-25T17:29:16.118Z,0.98
2022-07-25T17:31:42.831Z,1.10
2022-07-25T17:34:09.475Z,0.80
2022-07-25T17:36:36.879Z,1.30
2022-07-25T17:39:05.417Z,1.13
2022-07-25T17:41:32.540Z,0.85
2022-07-25T17:43:59.142Z,0.90
2022-07-25T17:46:25.962Z,1.08
2022-07-25T17:48:52.853Z,1.00
2022-07-25T17:51:19.589Z,1.05
2022-07-25T17:53:46.183Z,1.08
2022-07-25T17:56:14.203Z,1.50
2022-07-25T17:58:41.191Z,1.52
2022-07-25T18:01:10.547Z,0.98
2022-07-25T18:03:37.818Z,1.35
2022-07-25T18:06:05.271Z,2.28
2022-07-25T18:08:35.188Z,0.80
2022-07-25T18:11:03.492Z,0.80
2022-07-25T18:13:31.401Z,0.60
2022-07-25T18:15:58.086Z,0.70
2022-07-25T18:18:24.642Z,0.80
2022-07-25T18:20:51.227Z,0.70
2022-07-25T18:23:17.849Z,0.70
2022-07-25T18:25:44.498Z,0.85
2022-07-25T18:28:11.774Z,0.90
2022-07-25T18:30:39.931Z,0.90
2022-07-25T18:33:07.397Z,0.80
2022-07-25T18:35:33.943Z,0.70
2022-07-25T18:38:01.212Z,0.88
2022-07-25T18:40:27.943Z,0.70
2022-07-25T18:42:54.793Z,1.15
2022-07-25T18:45:22.248Z,1.23
2022-07-25T18:47:52.295Z,1.15
2022-07-25T18:50:20.372Z,0.77
2022-07-25T18:52:47.199Z,0.90
2022-07-25T18:55:14.028Z,1.15
2022-07-25T18:57:40.878Z,0.70
2022-07-25T19:00:08.125Z,0.77
2022-07-25T19:02:35.053Z,1.20
2022-07-25T19:05:03.866Z,0.80
2022-07-25T19:07:31.305Z,0.70
2022-07-25T19:09:57.907Z,0.60
2022-07-25T19:12:26.621Z,0.68
2022-07-25T19:14:53.550Z,0.93
2022-07-25T19:17:20.257Z,0.68
2022-07-25T19:19:46.915Z,0.52
2022-07-25T19:22:15.009Z,0.60
2022-07-25T19:24:41.894Z,0.55
2022-07-25T19:27:09.328Z,0.80
2022-07-25T19:29:36.307Z,0.60
2022-07-25T19:32:02.997Z,0.50
2022-07-25T19:34:29.522Z,0.60
2022-07-25T19:36:56.852Z,0.75
2022-07-25T19:39:24.879Z,0.57
2022-07-25T19:41:51.592Z,0.85
2022-07-25T19:44:18.201Z,0.80
2022-07-25T19:46:44.896Z,0.75
2022-07-25T19:49:11.847Z,1.17
2022-07-25T19:51:38.414Z,1.20
2022-07-25T19:54:05.387Z,1.02
2022-07-25T19:56:34.430Z,0.90
2022-07-25T19:59:01.379Z,0.60
2022-07-25T20:01:28.360Z,0.75
2022-07-25T20:03:55.015Z,0.93
2022-07-25T20:06:21.756Z,0.63
2022-07-25T20:08:48.392Z,0.80
2022-07-25T20:11:15.593Z,0.70
2022-07-25T20:13:43.536Z,0.70
2022-07-25T20:16:10.461Z,0.80
2022-07-25T20:18:37.447Z,0.50
2022-07-25T20:21:05.256Z,0.60
2022-07-25T20:23:31.964Z,0.93
2022-07-25T20:25:58.766Z,0.82
2022-07-25T20:28:25.568Z,0.90
2022-07-25T20:30:54.080Z,1.00
2022-07-25T20:33:22.674Z,1.35
2022-07-25T20:35:49.171Z,0.80
2022-07-25T20:38:16.360Z,1.38
2022-07-25T20:40:49.326Z,1.30
2022-07-25T20:43:16.518Z,1.40
2022-07-25T20:45:43.145Z,1.13
2022-07-25T20:48:11.148Z,1.50
2022-07-25T20:50:38.553Z,1.35
2022-07-25T20:53:05.275Z,1.25
2022-07-25T20:55:31.986Z,1.33
2022-07-25T20:57:58.594Z,1.20
2022-07-25T21:00:27.439Z,1.20
2022-07-25T21:02:54.032Z,1.25
2022-07-25T21:05:22.348Z,1.38
2022-07-25T21:07:49.256Z,1.10
2022-07-25T21:10:16.295Z,1.48
2022-07-25T21:12:45.045Z,1.02
2022-07-25T21:15:11.999Z,1.20
2022-07-25T21:17:39.121Z,1.65
2022-07-25T21:20:06.469Z,1.58
2022-07-25T21:22:34.543Z,1.38
2022-07-25T21:25:01.542Z,1.13
2022-07-25T21:27:28.338Z,1.38
2022-07-25T21:29:54.884Z,1.20
2022-07-25T21:32:22.088Z,1.20
2022-07-25T21:34:49.980Z,1.25
2022-07-25T21:37:16.556Z,1.30
2022-07-25T21:39:44.469Z,1.45
2022-07-25T21:42:11.931Z,1.40
2022-07-25T21:44:38.414Z,1.13
2022-07-25T21:47:04.947Z,1.42
2022-07-25T21:49:49.887Z,1.33
2022-07-25T21:52:16.405Z,1.08
2022-07-25T21:54:44.618Z,1.00
2022-07-25T21:57:13.336Z,1.20
2022-07-25T21:59:40.602Z,0.82
2022-07-25T22:02:07.576Z,1.13
2022-07-25T22:04:34.106Z,1.08
2022-07-25T22:07:00.715Z,1.45
2022-07-25T22:09:27.283Z,1.13
2022-07-25T22:11:55.585Z,1.30
2022-07-25T22:14:22.361Z,1.35
2022-07-25T22:16:48.913Z,1.00
2022-07-25T22:19:16.654Z,1.15
2022-07-25T22:21:45.614Z,1.02
2022-07-25T22:24:12.121Z,0.95
2022-07-25T22:26:38.582Z,1.27
2022-07-25T22:29:06.762Z,1.00
2022-07-25T22:31:33.521Z,0.98
2022-07-25T22:34:00.134Z,1.08
2022-07-25T22:36:26.608Z,1.00
2022-07-25T22:38:53.156Z,1.30
2022-07-25T22:41:20.057Z,1.20
2022-07-25T22:43:48.696Z,1.30
2022-07-25T22:46:27.245Z,1.98
2022-07-25T22:48:53.932Z,1.55
2022-07-25T22:51:20.490Z,1.10
2022-07-25T22:53:46.982Z,1.30
2022-07-25T22:56:13.473Z,1.33
2022-07-25T22:58:40.135Z,1.00
2022-07-25T23:01:06.787Z,1.10
2022-07-25T23:03:35.355Z,1.13
2022-07-25T23:06:01.840Z,1.70
2022-07-25T23:08:28.517Z,1.35
2022-07-25T23:10:54.952Z,1.13
2022-07-25T23:13:21.668Z,1.00
2022-07-25T23:15:51.049Z,1.10
2022-07-25T23:18:18.180Z,1.20
2022-07-25T23:20:46.114Z,1.58
2022-07-25T23:23:12.582Z,1.08
2022-07-25T23:25:39.094Z,1.27
2022-07-25T23:28:05.592Z,1.35
2022-07-25T23:30:35.436Z,1.30
2022-07-25T23:33:06.384Z,1.37
2022-07-25T23:35:32.880Z,1.42
2022-07-25T23:38:00.877Z,1.15
2022-07-25T23:40:27.804Z,1.13
2022-07-25T23:42:54.530Z,1.27
2022-07-25T23:45:21.505Z,1.50
2022-07-25T23:47:48.354Z,1.83
2022-07-25T23:50:15.600Z,1.70
2022-07-25T23:52:42.037Z,1.45
2022-07-25T23:55:10.181Z,1.73
2022-07-25T23:57:36.777Z,1.50
